Terminal Aerodrome Forecast
Issued by NWS

Current Version | Previous Version | Graphics & Text | Print | Product List | Glossary On
Versions: 1 2 3 4 5 6 7 8 9 10 11 12 13 14 15 16 17 18 19 20 21 22 23 24 25
530
FTUS41 KILN 171938 AAA
TAFLCK
TAF AMD
KLCK 171938Z 1720/1818 18005KT 1SM -SN BR OVC008
     FM180000 23005KT 5SM BR VCSH OVC006
     FM180700 27007KT P6SM BKN012
     FM181300 VRB03KT P6SM SCT016
     FM181700 17006KT P6SM SCT250=

USA.gov is the U.S. government's official web portal to all federal, state and local government web resources and services.